sensor_id;sensor_type;location;lat;lon;timestamp;P1;durP1;ratioP1;P2;durP2;ratioP2
41887;SDS011;63122;52.424;13.458;2024-02-28T01:09:06;28.90;;;13.33;;
41887;SDS011;63122;52.424;13.458;2024-02-28T01:11:01;29.13;;;14.40;;
41887;SDS011;63122;52.424;13.458;2024-02-28T01:12:58;28.80;;;13.80;;
41887;SDS011;63122;52.424;13.458;2024-02-28T01:14:54;25.03;;;13.90;;
41887;SDS011;63122;52.424;13.458;2024-02-28T01:16:49;25.07;;;12.47;;
41887;SDS011;63122;52.424;13.458;2024-02-28T01:18:42;23.33;;;12.23;;
41887;SDS011;63122;52.424;13.458;2024-02-28T01:20:40;23.87;;;13.10;;
41887;SDS011;63122;52.424;13.458;2024-02-28T01:22:35;27.23;;;12.47;;
41887;SDS011;63122;52.424;13.458;2024-02-28T01:24:33;23.67;;;11.70;;
41887;SDS011;63122;52.424;13.458;2024-02-28T01:26:29;23.73;;;12.67;;
41887;SDS011;63122;52.424;13.458;2024-02-28T01:28:24;27.90;;;13.47;;
41887;SDS011;63122;52.424;13.458;2024-02-28T01:30:17;23.60;;;13.00;;
41887;SDS011;63122;52.424;13.458;2024-02-28T01:32:15;23.73;;;12.70;;
41887;SDS011;63122;52.424;13.458;2024-02-28T01:34:10;24.70;;;13.10;;
41887;SDS011;63122;52.424;13.458;2024-02-28T01:36:06;25.57;;;12.73;;
41887;SDS011;63122;52.424;13.458;2024-02-28T01:37:59;25.63;;;12.47;;
41887;SDS011;63122;52.424;13.458;2024-02-28T01:39:57;21.60;;;12.57;;
41887;SDS011;63122;52.424;13.458;2024-02-28T01:41:52;26.93;;;13.70;;
41887;SDS011;63122;52.424;13.458;2024-02-28T01:43:49;25.20;;;13.10;;
41887;SDS011;63122;52.424;13.458;2024-02-28T01:45:46;28.13;;;13.57;;
41887;SDS011;63122;52.424;13.458;2024-02-28T01:47:39;24.93;;;13.27;;
41887;SDS011;63122;52.424;13.458;2024-02-28T01:49:36;24.53;;;12.47;;
41887;SDS011;63122;52.424;13.458;2024-02-28T01:51:32;24.73;;;13.13;;
41887;SDS011;63122;52.424;13.458;2024-02-28T01:53:28;26.93;;;13.43;;
41887;SDS011;63122;52.424;13.458;2024-02-28T01:55:26;25.23;;;13.07;;
41887;SDS011;63122;52.424;13.458;2024-02-28T01:57:22;28.40;;;14.30;;
41887;SDS011;63122;52.424;13.458;2024-02-28T01:59:17;24.20;;;13.17;;
41887;SDS011;63122;52.424;13.458;2024-02-28T02:01:13;25.40;;;13.23;;
41887;SDS011;63122;52.424;13.458;2024-02-28T02:03:10;25.90;;;13.27;;
41887;SDS011;63122;52.424;13.458;2024-02-28T02:05:03;26.03;;;13.00;;
41887;SDS011;63122;52.424;13.458;2024-02-28T02:07:00;22.63;;;12.60;;
41887;SDS011;63122;52.424;13.458;2024-02-28T02:08:52;27.73;;;12.90;;
41887;SDS011;63122;52.424;13.458;2024-02-28T02:10:51;27.03;;;13.40;;
41887;SDS011;63122;52.424;13.458;2024-02-28T02:12:44;25.27;;;13.00;;
41887;SDS011;63122;52.424;13.458;2024-02-28T02:14:39;23.40;;;12.83;;
41887;SDS011;63122;52.424;13.458;2024-02-28T02:16:34;26.97;;;12.83;;
41887;SDS011;63122;52.424;13.458;2024-02-28T02:18:28;25.63;;;12.73;;
41887;SDS011;63122;52.424;13.458;2024-02-28T02:20:23;27.03;;;13.07;;
41887;SDS011;63122;52.424;13.458;2024-02-28T02:22:21;24.63;;;12.77;;
41887;SDS011;63122;52.424;13.458;2024-02-28T02:24:24;23.87;;;12.33;;
41887;SDS011;63122;52.424;13.458;2024-02-28T02:26:20;22.67;;;11.80;;
41887;SDS011;63122;52.424;13.458;2024-02-28T02:28:12;22.40;;;11.73;;
41887;SDS011;63122;52.424;13.458;2024-02-28T02:30:08;23.53;;;11.80;;
41887;SDS011;63122;52.424;13.458;2024-02-28T02:32:02;22.23;;;11.63;;
41887;SDS011;63122;52.424;13.458;2024-02-28T02:33:58;21.83;;;11.87;;
41887;SDS011;63122;52.424;13.458;2024-02-28T02:35:53;21.30;;;11.87;;
41887;SDS011;63122;52.424;13.458;2024-02-28T02:37:49;20.83;;;10.80;;
41887;SDS011;63122;52.424;13.458;2024-02-28T02:39:44;16.93;;;10.00;;
41887;SDS011;63122;52.424;13.458;2024-02-28T02:41:40;21.63;;;11.70;;
41887;SDS011;63122;52.424;13.458;2024-02-28T02:43:35;19.67;;;11.07;;
41887;SDS011;63122;52.424;13.458;2024-02-28T02:45:28;21.93;;;11.73;;
41887;SDS011;63122;52.424;13.458;2024-02-28T02:47:26;23.17;;;12.23;;
41887;SDS011;63122;52.424;13.458;2024-02-28T02:49:23;24.50;;;11.97;;
41887;SDS011;63122;52.424;13.458;2024-02-28T02:51:18;25.03;;;12.63;;
41887;SDS011;63122;52.424;13.458;2024-02-28T02:53:13;31.37;;;15.43;;
41887;SDS011;63122;52.424;13.458;2024-02-28T02:55:09;28.63;;;15.93;;
41887;SDS011;63122;52.424;13.458;2024-02-28T02:57:04;41.57;;;19.33;;
41887;SDS011;63122;52.424;13.458;2024-02-28T02:58:57;43.60;;;19.87;;
41887;SDS011;63122;52.424;13.458;2024-02-28T04:06:34;21.47;;;11.63;;
41887;SDS011;63122;52.424;13.458;2024-02-28T04:08:30;18.77;;;10.03;;
41887;SDS011;63122;52.424;13.458;2024-02-28T04:10:23;19.10;;;10.10;;
41887;SDS011;63122;52.424;13.458;2024-02-28T04:12:19;19.90;;;9.50;;
41887;SDS011;63122;52.424;13.458;2024-02-28T04:14:14;17.40;;;9.33;;
41887;SDS011;63122;52.424;13.458;2024-02-28T04:16:09;17.83;;;9.43;;
41887;SDS011;63122;52.424;13.458;2024-02-28T04:18:05;16.20;;;9.03;;
41887;SDS011;63122;52.424;13.458;2024-02-28T04:19:58;18.47;;;10.10;;
41887;SDS011;63122;52.424;13.458;2024-02-28T04:21:58;16.53;;;9.50;;
41887;SDS011;63122;52.424;13.458;2024-02-28T04:23:54;17.67;;;8.53;;
41887;SDS011;63122;52.424;13.458;2024-02-28T04:25:49;20.40;;;10.90;;
41887;SDS011;63122;52.424;13.458;2024-02-28T04:27:44;26.23;;;14.27;;
41887;SDS011;63122;52.424;13.458;2024-02-28T04:29:40;19.70;;;10.00;;
41887;SDS011;63122;52.424;13.458;2024-02-28T04:31:33;17.30;;;8.87;;
41887;SDS011;63122;52.424;13.458;2024-02-28T04:33:28;18.57;;;9.17;;
41887;SDS011;63122;52.424;13.458;2024-02-28T04:35:23;18.77;;;8.90;;
41887;SDS011;63122;52.424;13.458;2024-02-28T04:40:14;18.87;;;8.77;;
41887;SDS011;63122;52.424;13.458;2024-02-28T04:42:12;17.53;;;8.50;;
41887;SDS011;63122;52.424;13.458;2024-02-28T04:47:17;18.97;;;8.33;;
41887;SDS011;63122;52.424;13.458;2024-02-28T04:49:24;19.13;;;8.50;;
41887;SDS011;63122;52.424;13.458;2024-02-28T04:51:20;13.87;;;8.10;;
41887;SDS011;63122;52.424;13.458;2024-02-28T04:53:16;14.13;;;8.10;;
41887;SDS011;63122;52.424;13.458;2024-02-28T04:55:09;14.30;;;7.47;;
41887;SDS011;63122;52.424;13.458;2024-02-28T04:57:04;15.63;;;8.33;;
41887;SDS011;63122;52.424;13.458;2024-02-28T04:59:00;14.17;;;7.80;;
41887;SDS011;63122;52.424;13.458;2024-02-28T05:00:59;11.87;;;7.37;;
41887;SDS011;63122;52.424;13.458;2024-02-28T05:02:54;12.03;;;7.17;;
41887;SDS011;63122;52.424;13.458;2024-02-28T05:04:50;18.60;;;11.00;;
41887;SDS011;63122;52.424;13.458;2024-02-28T05:06:46;15.23;;;7.90;;
41887;SDS011;63122;52.424;13.458;2024-02-28T05:08:42;12.30;;;6.80;;
41887;SDS011;63122;52.424;13.458;2024-02-28T05:10:37;10.03;;;6.03;;
41887;SDS011;63122;52.424;13.458;2024-02-28T05:12:34;9.97;;;6.63;;
41887;SDS011;63122;52.424;13.458;2024-02-28T05:14:26;11.73;;;7.10;;
41887;SDS011;63122;52.424;13.458;2024-02-28T05:16:22;12.63;;;7.60;;
41887;SDS011;63122;52.424;13.458;2024-02-28T05:18:18;11.97;;;6.93;;
41887;SDS011;63122;52.424;13.458;2024-02-28T05:20:17;14.33;;;7.43;;
41887;SDS011;63122;52.424;13.458;2024-02-28T05:22:12;10.33;;;6.53;;
41887;SDS011;63122;52.424;13.458;2024-02-28T05:24:07;12.37;;;7.30;;
41887;SDS011;63122;52.424;13.458;2024-02-28T05:26:01;13.93;;;8.90;;
41887;SDS011;63122;52.424;13.458;2024-02-28T05:27:58;17.43;;;10.43;;
41887;SDS011;63122;52.424;13.458;2024-02-28T05:29:54;16.87;;;10.77;;
41887;SDS011;63122;52.424;13.458;2024-02-28T05:31:47;14.03;;;9.67;;
41887;SDS011;63122;52.424;13.458;2024-02-28T05:33:45;16.03;;;10.13;;
41887;SDS011;63122;52.424;13.458;2024-02-28T05:35:38;17.47;;;10.90;;
41887;SDS011;63122;52.424;13.458;2024-02-28T05:37:33;16.03;;;10.10;;
41887;SDS011;63122;52.424;13.458;2024-02-28T05:39:27;16.50;;;9.83;;
41887;SDS011;63122;52.424;13.458;2024-02-28T05:41:23;15.40;;;9.57;;
41887;SDS011;63122;52.424;13.458;2024-02-28T05:43:16;16.43;;;9.33;;
41887;SDS011;63122;52.424;13.458;2024-02-28T05:45:11;13.77;;;8.53;;
41887;SDS011;63122;52.424;13.458;2024-02-28T05:47:08;14.73;;;8.50;;
41887;SDS011;63122;52.424;13.458;2024-02-28T05:49:04;16.20;;;8.70;;
41887;SDS011;63122;52.424;13.458;2024-02-28T05:51:00;15.27;;;8.87;;
41887;SDS011;63122;52.424;13.458;2024-02-28T05:52:56;11.97;;;7.63;;
41887;SDS011;63122;52.424;13.458;2024-02-28T05:54:51;14.83;;;8.43;;
41887;SDS011;63122;52.424;13.458;2024-02-28T05:56:47;14.17;;;7.93;;
41887;SDS011;63122;52.424;13.458;2024-02-28T05:58:43;14.50;;;7.80;;
41887;SDS011;63122;52.424;13.458;2024-02-28T06:00:39;16.40;;;9.10;;
41887;SDS011;63122;52.424;13.458;2024-02-28T06:02:32;14.23;;;8.33;;
41887;SDS011;63122;52.424;13.458;2024-02-28T06:04:30;14.40;;;9.00;;
41887;SDS011;63122;52.424;13.458;2024-02-28T06:06:27;15.37;;;8.57;;
41887;SDS011;63122;52.424;13.458;2024-02-28T06:08:19;13.33;;;8.43;;
41887;SDS011;63122;52.424;13.458;2024-02-28T06:10:16;16.77;;;9.87;;
41887;SDS011;63122;52.424;13.458;2024-02-28T06:12:12;20.07;;;11.73;;
41887;SDS011;63122;52.424;13.458;2024-02-28T06:14:09;23.10;;;13.60;;
41887;SDS011;63122;52.424;13.458;2024-02-28T06:16:03;23.70;;;14.73;;
41887;SDS011;63122;52.424;13.458;2024-02-28T06:17:59;24.73;;;15.50;;
41887;SDS011;63122;52.424;13.458;2024-02-28T06:19:57;26.73;;;15.80;;
41887;SDS011;63122;52.424;13.458;2024-02-28T06:21:54;23.77;;;15.37;;
41887;SDS011;63122;52.424;13.458;2024-02-28T06:23:47;27.40;;;16.27;;
41887;SDS011;63122;52.424;13.458;2024-02-28T06:25:42;28.37;;;17.10;;
41887;SDS011;63122;52.424;13.458;2024-02-28T06:27:37;27.17;;;17.13;;
41887;SDS011;63122;52.424;13.458;2024-02-28T06:29:34;25.87;;;16.50;;
41887;SDS011;63122;52.424;13.458;2024-02-28T06:31:27;32.93;;;17.40;;
41887;SDS011;63122;52.424;13.458;2024-02-28T06:33:24;29.30;;;18.63;;
41887;SDS011;63122;52.424;13.458;2024-02-28T06:35:22;33.00;;;18.60;;
41887;SDS011;63122;52.424;13.458;2024-02-28T06:37:15;26.80;;;16.33;;
41887;SDS011;63122;52.424;13.458;2024-02-28T06:39:11;26.80;;;14.50;;
41887;SDS011;63122;52.424;13.458;2024-02-28T06:41:04;26.57;;;13.87;;
41887;SDS011;63122;52.424;13.458;2024-02-28T06:42:59;22.80;;;13.30;;
41887;SDS011;63122;52.424;13.458;2024-02-28T06:44:55;23.27;;;12.13;;
41887;SDS011;63122;52.424;13.458;2024-02-28T06:46:50;21.00;;;11.83;;
41887;SDS011;63122;52.424;13.458;2024-02-28T06:48:49;17.33;;;10.93;;
41887;SDS011;63122;52.424;13.458;2024-02-28T06:50:47;21.50;;;10.43;;
41887;SDS011;63122;52.424;13.458;2024-02-28T06:52:43;21.37;;;11.83;;
41887;SDS011;63122;52.424;13.458;2024-02-28T06:54:38;23.83;;;12.73;;
41887;SDS011;63122;52.424;13.458;2024-02-28T06:56:34;20.23;;;10.93;;
41887;SDS011;63122;52.424;13.458;2024-02-28T06:58:29;18.80;;;11.03;;
41887;SDS011;63122;52.424;13.458;2024-02-28T07:00:25;25.40;;;12.63;;
41887;SDS011;63122;52.424;13.458;2024-02-28T07:02:21;20.13;;;11.43;;
41887;SDS011;63122;52.424;13.458;2024-02-28T07:04:17;23.30;;;11.13;;
41887;SDS011;63122;52.424;13.458;2024-02-28T07:06:16;18.27;;;11.07;;
41887;SDS011;63122;52.424;13.458;2024-02-28T07:08:12;20.00;;;10.20;;
41887;SDS011;63122;52.424;13.458;2024-02-28T07:10:10;16.60;;;10.43;;
41887;SDS011;63122;52.424;13.458;2024-02-28T07:12:04;14.93;;;9.10;;
41887;SDS011;63122;52.424;13.458;2024-02-28T07:14:00;15.27;;;8.80;;
41887;SDS011;63122;52.424;13.458;2024-02-28T07:15:56;14.80;;;8.23;;
41887;SDS011;63122;52.424;13.458;2024-02-28T07:17:52;14.67;;;8.23;;
41887;SDS011;63122;52.424;13.458;2024-02-28T07:19:48;13.63;;;8.20;;
41887;SDS011;63122;52.424;13.458;2024-02-28T07:21:43;12.20;;;7.70;;
41887;SDS011;63122;52.424;13.458;2024-02-28T07:23:39;12.07;;;7.00;;
41887;SDS011;63122;52.424;13.458;2024-02-28T07:25:32;13.10;;;7.33;;
41887;SDS011;63122;52.424;13.458;2024-02-28T07:27:28;12.47;;;7.23;;
41887;SDS011;63122;52.424;13.458;2024-02-28T07:29:21;10.83;;;6.63;;
41887;SDS011;63122;52.424;13.458;2024-02-28T07:31:16;14.77;;;7.73;;
41887;SDS011;63122;52.424;13.458;2024-02-28T07:33:12;14.33;;;7.70;;
41887;SDS011;63122;52.424;13.458;2024-02-28T07:35:08;12.87;;;7.50;;
41887;SDS011;63122;52.424;13.458;2024-02-28T07:37:06;12.73;;;7.87;;
41887;SDS011;63122;52.424;13.458;2024-02-28T07:38:59;11.83;;;6.83;;
41887;SDS011;63122;52.424;13.458;2024-02-28T07:40:55;11.50;;;7.17;;
41887;SDS011;63122;52.424;13.458;2024-02-28T07:42:48;11.07;;;6.83;;
41887;SDS011;63122;52.424;13.458;2024-02-28T07:44:43;13.17;;;7.07;;
41887;SDS011;63122;52.424;13.458;2024-02-28T07:46:40;12.27;;;7.20;;
41887;SDS011;63122;52.424;13.458;2024-02-28T07:48:36;9.57;;;5.87;;
41887;SDS011;63122;52.424;13.458;2024-02-28T07:50:29;10.90;;;7.00;;
41887;SDS011;63122;52.424;13.458;2024-02-28T07:52:27;11.93;;;7.83;;
41887;SDS011;63122;52.424;13.458;2024-02-28T07:54:22;10.43;;;6.77;;
41887;SDS011;63122;52.424;13.458;2024-02-28T07:56:17;10.93;;;6.60;;
41887;SDS011;63122;52.424;13.458;2024-02-28T07:58:12;10.47;;;6.93;;
41887;SDS011;63122;52.424;13.458;2024-02-28T08:00:10;12.63;;;7.07;;
41887;SDS011;63122;52.424;13.458;2024-02-28T08:02:10;11.43;;;7.00;;
41887;SDS011;63122;52.424;13.458;2024-02-28T08:04:05;11.27;;;6.20;;
41887;SDS011;63122;52.424;13.458;2024-02-28T08:06:03;10.40;;;6.57;;
41887;SDS011;63122;52.424;13.458;2024-02-28T08:08:00;10.10;;;5.90;;
41887;SDS011;63122;52.424;13.458;2024-02-28T08:09:56;11.83;;;6.57;;
41887;SDS011;63122;52.424;13.458;2024-02-28T08:11:51;10.60;;;6.37;;
41887;SDS011;63122;52.424;13.458;2024-02-28T08:13:47;8.93;;;5.87;;
41887;SDS011;63122;52.424;13.458;2024-02-28T08:15:42;11.67;;;6.37;;
41887;SDS011;63122;52.424;13.458;2024-02-28T08:17:38;12.33;;;6.93;;
41887;SDS011;63122;52.424;13.458;2024-02-28T08:19:33;10.03;;;6.50;;
41887;SDS011;63122;52.424;13.458;2024-02-28T08:21:27;10.97;;;6.10;;
41887;SDS011;63122;52.424;13.458;2024-02-28T08:23:25;11.27;;;6.03;;
41887;SDS011;63122;52.424;13.458;2024-02-28T08:25:18;10.90;;;6.10;;
41887;SDS011;63122;52.424;13.458;2024-02-28T08:27:15;9.30;;;6.10;;
41887;SDS011;63122;52.424;13.458;2024-02-28T08:29:11;11.00;;;5.77;;
41887;SDS011;63122;52.424;13.458;2024-02-28T08:31:03;8.80;;;6.43;;
41887;SDS011;63122;52.424;13.458;2024-02-28T08:32:59;9.70;;;6.03;;
41887;SDS011;63122;52.424;13.458;2024-02-28T08:34:52;8.87;;;5.80;;
41887;SDS011;63122;52.424;13.458;2024-02-28T08:36:50;8.87;;;5.83;;
41887;SDS011;63122;52.424;13.458;2024-02-28T08:38:49;10.47;;;6.07;;
41887;SDS011;63122;52.424;13.458;2024-02-28T08:40:45;9.53;;;5.63;;
41887;SDS011;63122;52.424;13.458;2024-02-28T08:42:39;9.63;;;6.10;;
41887;SDS011;63122;52.424;13.458;2024-02-28T08:44:34;14.53;;;6.80;;
41887;SDS011;63122;52.424;13.458;2024-02-28T08:46:27;11.47;;;6.13;;
41887;SDS011;63122;52.424;13.458;2024-02-28T08:48:23;12.07;;;6.03;;
41887;SDS011;63122;52.424;13.458;2024-02-28T08:50:19;10.67;;;6.80;;
41887;SDS011;63122;52.424;13.458;2024-02-28T08:52:14;9.47;;;6.10;;
41887;SDS011;63122;52.424;13.458;2024-02-28T08:54:12;9.83;;;5.80;;
41887;SDS011;63122;52.424;13.458;2024-02-28T08:56:09;10.97;;;5.80;;
41887;SDS011;63122;52.424;13.458;2024-02-28T08:58:02;10.07;;;6.03;;
41887;SDS011;63122;52.424;13.458;2024-02-28T08:59:58;10.47;;;6.07;;
41887;SDS011;63122;52.424;13.458;2024-02-28T09:01:54;9.37;;;5.77;;
41887;SDS011;63122;52.424;13.458;2024-02-28T09:03:50;11.33;;;6.13;;
41887;SDS011;63122;52.424;13.458;2024-02-28T09:05:47;11.63;;;6.70;;
41887;SDS011;63122;52.424;13.458;2024-02-28T09:07:40;10.80;;;5.83;;
41887;SDS011;63122;52.424;13.458;2024-02-28T09:09:39;10.50;;;6.47;;
41887;SDS011;63122;52.424;13.458;2024-02-28T09:11:37;11.03;;;6.53;;
41887;SDS011;63122;52.424;13.458;2024-02-28T09:13:29;10.43;;;5.77;;
41887;SDS011;63122;52.424;13.458;2024-02-28T09:15:26;9.80;;;6.50;;
41887;SDS011;63122;52.424;13.458;2024-02-28T09:17:21;11.27;;;6.00;;
41887;SDS011;63122;52.424;13.458;2024-02-28T09:19:14;8.10;;;5.50;;
41887;SDS011;63122;52.424;13.458;2024-02-28T09:21:10;11.23;;;5.23;;
41887;SDS011;63122;52.424;13.458;2024-02-28T09:23:03;9.13;;;5.80;;
41887;SDS011;63122;52.424;13.458;2024-02-28T09:25:02;12.73;;;6.07;;
41887;SDS011;63122;52.424;13.458;2024-02-28T09:26:56;12.03;;;7.07;;
41887;SDS011;63122;52.424;13.458;2024-02-28T09:28:51;12.87;;;7.10;;
41887;SDS011;63122;52.424;13.458;2024-02-28T09:30:47;13.50;;;7.10;;
41887;SDS011;63122;52.424;13.458;2024-02-28T09:32:44;12.80;;;6.57;;
41887;SDS011;63122;52.424;13.458;2024-02-28T09:34:37;15.70;;;8.27;;
41887;SDS011;63122;52.424;13.458;2024-02-28T09:36:39;14.07;;;8.17;;
41887;SDS011;63122;52.424;13.458;2024-02-28T09:38:33;17.07;;;8.23;;
41887;SDS011;63122;52.424;13.458;2024-02-28T09:40:31;15.70;;;7.93;;
41887;SDS011;63122;52.424;13.458;2024-02-28T09:42:26;14.30;;;7.90;;
41887;SDS011;63122;52.424;13.458;2024-02-28T09:44:20;14.27;;;7.83;;
41887;SDS011;63122;52.424;13.458;2024-02-28T09:46:17;13.17;;;7.50;;
41887;SDS011;63122;52.424;13.458;2024-02-28T09:48:09;12.17;;;7.07;;
41887;SDS011;63122;52.424;13.458;2024-02-28T09:50:07;13.10;;;7.93;;
41887;SDS011;63122;52.424;13.458;2024-02-28T09:51:59;19.43;;;8.87;;
41887;SDS011;63122;52.424;13.458;2024-02-28T09:53:56;12.30;;;7.33;;
41887;SDS011;63122;52.424;13.458;2024-02-28T09:55:54;13.23;;;7.90;;
41887;SDS011;63122;52.424;13.458;2024-02-28T09:57:49;15.77;;;8.27;;
41887;SDS011;63122;52.424;13.458;2024-02-28T09:59:48;20.57;;;10.40;;
41887;SDS011;63122;52.424;13.458;2024-02-28T10:01:50;18.67;;;9.57;;
41887;SDS011;63122;52.424;13.458;2024-02-28T10:03:52;16.63;;;9.87;;
41887;SDS011;63122;52.424;13.458;2024-02-28T10:05:49;18.53;;;10.07;;
41887;SDS011;63122;52.424;13.458;2024-02-28T10:07:45;17.40;;;9.70;;
41887;SDS011;63122;52.424;13.458;2024-02-28T10:09:38;19.07;;;10.53;;
41887;SDS011;63122;52.424;13.458;2024-02-28T10:11:36;20.77;;;11.63;;
41887;SDS011;63122;52.424;13.458;2024-02-28T10:13:38;19.63;;;11.60;;
41887;SDS011;63122;52.424;13.458;2024-02-28T10:15:33;21.30;;;11.50;;
41887;SDS011;63122;52.424;13.458;2024-02-28T10:17:30;23.70;;;11.60;;
41887;SDS011;63122;52.424;13.458;2024-02-28T10:19:25;23.47;;;12.40;;
41887;SDS011;63122;52.424;13.458;2024-02-28T10:21:21;24.17;;;12.53;;
41887;SDS011;63122;52.424;13.458;2024-02-28T10:23:18;21.80;;;12.07;;
41887;SDS011;63122;52.424;13.458;2024-02-28T10:25:14;20.67;;;11.80;;
41887;SDS011;63122;52.424;13.458;2024-02-28T10:27:15;25.73;;;13.20;;
41887;SDS011;63122;52.424;13.458;2024-02-28T10:29:08;24.73;;;13.03;;
41887;SDS011;63122;52.424;13.458;2024-02-28T10:31:04;23.13;;;12.20;;
41887;SDS011;63122;52.424;13.458;2024-02-28T10:32:59;23.47;;;11.83;;
41887;SDS011;63122;52.424;13.458;2024-02-28T10:34:54;24.10;;;12.77;;
41887;SDS011;63122;52.424;13.458;2024-02-28T10:36:49;23.87;;;13.23;;
41887;SDS011;63122;52.424;13.458;2024-02-28T10:38:45;23.97;;;13.27;;
41887;SDS011;63122;52.424;13.458;2024-02-28T10:40:42;25.43;;;13.90;;
41887;SDS011;63122;52.424;13.458;2024-02-28T10:42:40;26.57;;;13.53;;
41887;SDS011;63122;52.424;13.458;2024-02-28T10:44:37;21.87;;;12.67;;
41887;SDS011;63122;52.424;13.458;2024-02-28T10:46:32;25.43;;;12.63;;
41887;SDS011;63122;52.424;13.458;2024-02-28T10:48:30;23.00;;;13.20;;
41887;SDS011;63122;52.424;13.458;2024-02-28T10:50:25;24.10;;;13.37;;
41887;SDS011;63122;52.424;13.458;2024-02-28T10:52:21;24.10;;;13.07;;
41887;SDS011;63122;52.424;13.458;2024-02-28T10:54:14;21.43;;;12.53;;
41887;SDS011;63122;52.424;13.458;2024-02-28T10:56:11;21.37;;;12.50;;
41887;SDS011;63122;52.424;13.458;2024-02-28T10:58:10;23.80;;;13.40;;
41887;SDS011;63122;52.424;13.458;2024-02-28T11:00:06;21.73;;;12.80;;
41887;SDS011;63122;52.424;13.458;2024-02-28T11:02:00;24.80;;;12.80;;
41887;SDS011;63122;52.424;13.458;2024-02-28T11:03:56;24.03;;;13.03;;
41887;SDS011;63122;52.424;13.458;2024-02-28T11:05:48;23.03;;;12.50;;
41887;SDS011;63122;52.424;13.458;2024-02-28T11:07:44;24.73;;;13.30;;
41887;SDS011;63122;52.424;13.458;2024-02-28T11:09:40;27.43;;;14.03;;
41887;SDS011;63122;52.424;13.458;2024-02-28T11:11:36;26.77;;;12.77;;
41887;SDS011;63122;52.424;13.458;2024-02-28T11:13:35;27.57;;;12.70;;
41887;SDS011;63122;52.424;13.458;2024-02-28T11:15:28;24.00;;;13.33;;
41887;SDS011;63122;52.424;13.458;2024-02-28T11:17:25;24.33;;;12.67;;
41887;SDS011;63122;52.424;13.458;2024-02-28T11:19:19;23.60;;;12.47;;
41887;SDS011;63122;52.424;13.458;2024-02-28T11:21:16;27.53;;;12.90;;
41887;SDS011;63122;52.424;13.458;2024-02-28T11:23:09;22.53;;;12.97;;
41887;SDS011;63122;52.424;13.458;2024-02-28T11:25:06;23.07;;;12.73;;
41887;SDS011;63122;52.424;13.458;2024-02-28T11:27:03;24.40;;;13.43;;
41887;SDS011;63122;52.424;13.458;2024-02-28T11:29:09;24.80;;;12.70;;
41887;SDS011;63122;52.424;13.458;2024-02-28T11:31:05;22.20;;;12.80;;
41887;SDS011;63122;52.424;13.458;2024-02-28T11:33:01;21.33;;;11.63;;
41887;SDS011;63122;52.424;13.458;2024-02-28T11:35:00;21.17;;;12.37;;
41887;SDS011;63122;52.424;13.458;2024-02-28T11:36:53;22.23;;;11.80;;
41887;SDS011;63122;52.424;13.458;2024-02-28T11:38:52;21.47;;;12.07;;
41887;SDS011;63122;52.424;13.458;2024-02-28T11:40:50;22.70;;;12.57;;
41887;SDS011;63122;52.424;13.458;2024-02-28T11:42:46;22.30;;;11.40;;
41887;SDS011;63122;52.424;13.458;2024-02-28T11:44:44;22.37;;;12.00;;
41887;SDS011;63122;52.424;13.458;2024-02-28T11:46:53;21.70;;;11.50;;
41887;SDS011;63122;52.424;13.458;2024-02-28T11:48:49;20.50;;;11.27;;
41887;SDS011;63122;52.424;13.458;2024-02-28T11:50:42;24.40;;;12.80;;
41887;SDS011;63122;52.424;13.458;2024-02-28T11:52:38;20.23;;;11.33;;
41887;SDS011;63122;52.424;13.458;2024-02-28T11:54:36;18.83;;;11.20;;
41887;SDS011;63122;52.424;13.458;2024-02-28T11:56:29;23.13;;;12.47;;
41887;SDS011;63122;52.424;13.458;2024-02-28T11:58:24;20.83;;;12.63;;
41887;SDS011;63122;52.424;13.458;2024-02-28T12:00:25;21.33;;;11.40;;
41887;SDS011;63122;52.424;13.458;2024-02-28T12:02:22;18.40;;;11.10;;
41887;SDS011;63122;52.424;13.458;2024-02-28T12:04:20;22.90;;;12.07;;
41887;SDS011;63122;52.424;13.458;2024-02-28T12:06:15;20.20;;;11.67;;
41887;SDS011;63122;52.424;13.458;2024-02-28T12:08:11;20.27;;;11.47;;
41887;SDS011;63122;52.424;13.458;2024-02-28T12:10:07;19.30;;;11.40;;
41887;SDS011;63122;52.424;13.458;2024-02-28T12:12:04;24.77;;;11.53;;
41887;SDS011;63122;52.424;13.458;2024-02-28T12:14:02;20.43;;;11.70;;
41887;SDS011;63122;52.424;13.458;2024-02-28T12:15:58;24.83;;;11.97;;
41887;SDS011;63122;52.424;13.458;2024-02-28T12:17:53;18.23;;;10.77;;
41887;SDS011;63122;52.424;13.458;2024-02-28T12:19:46;21.70;;;11.63;;
41887;SDS011;63122;52.424;13.458;2024-02-28T12:21:46;19.90;;;11.17;;
41887;SDS011;63122;52.424;13.458;2024-02-28T12:23:41;21.87;;;12.00;;
41887;SDS011;63122;52.424;13.458;2024-02-28T12:25:37;20.23;;;11.63;;
41887;SDS011;63122;52.424;13.458;2024-02-28T12:27:31;18.77;;;10.97;;
41887;SDS011;63122;52.424;13.458;2024-02-28T12:29:27;21.80;;;11.23;;
41887;SDS011;63122;52.424;13.458;2024-02-28T12:31:26;18.83;;;10.93;;
41887;SDS011;63122;52.424;13.458;2024-02-28T12:33:21;20.50;;;11.83;;
41887;SDS011;63122;52.424;13.458;2024-02-28T12:35:14;19.30;;;11.30;;
41887;SDS011;63122;52.424;13.458;2024-02-28T12:37:10;19.57;;;11.90;;
41887;SDS011;63122;52.424;13.458;2024-02-28T12:39:03;18.50;;;11.07;;
41887;SDS011;63122;52.424;13.458;2024-02-28T12:40:59;19.53;;;10.83;;
41887;SDS011;63122;52.424;13.458;2024-02-28T12:42:55;21.00;;;11.67;;
41887;SDS011;63122;52.424;13.458;2024-02-28T12:44:48;21.20;;;10.83;;
41887;SDS011;63122;52.424;13.458;2024-02-28T12:46:46;18.33;;;9.97;;
41887;SDS011;63122;52.424;13.458;2024-02-28T12:48:42;22.20;;;11.47;;
41887;SDS011;63122;52.424;13.458;2024-02-28T12:50:34;22.00;;;12.00;;
41887;SDS011;63122;52.424;13.458;2024-02-28T12:52:30;18.77;;;11.07;;
41887;SDS011;63122;52.424;13.458;2024-02-28T12:54:25;19.67;;;11.03;;
41887;SDS011;63122;52.424;13.458;2024-02-28T12:56:21;17.43;;;10.53;;
41887;SDS011;63122;52.424;13.458;2024-02-28T12:58:13;19.30;;;11.10;;
41887;SDS011;63122;52.424;13.458;2024-02-28T13:00:09;19.20;;;11.47;;
41887;SDS011;63122;52.424;13.458;2024-02-28T13:02:05;23.60;;;12.83;;
41887;SDS011;63122;52.424;13.458;2024-02-28T13:04:01;18.20;;;11.20;;
41887;SDS011;63122;52.424;13.458;2024-02-28T13:05:57;20.50;;;10.73;;
41887;SDS011;63122;52.424;13.458;2024-02-28T13:07:52;19.13;;;11.30;;
41887;SDS011;63122;52.424;13.458;2024-02-28T13:09:48;21.33;;;12.33;;
41887;SDS011;63122;52.424;13.458;2024-02-28T13:11:41;21.17;;;11.93;;
41887;SDS011;63122;52.424;13.458;2024-02-28T13:13:36;20.00;;;12.10;;
41887;SDS011;63122;52.424;13.458;2024-02-28T13:15:31;18.80;;;10.60;;
41887;SDS011;63122;52.424;13.458;2024-02-28T13:17:29;19.93;;;11.50;;
41887;SDS011;63122;52.424;13.458;2024-02-28T13:19:24;18.10;;;10.60;;
41887;SDS011;63122;52.424;13.458;2024-02-28T13:21:19;21.20;;;11.47;;
41887;SDS011;63122;52.424;13.458;2024-02-28T13:23:15;18.27;;;10.87;;
41887;SDS011;63122;52.424;13.458;2024-02-28T13:25:08;17.50;;;10.10;;
41887;SDS011;63122;52.424;13.458;2024-02-28T13:27:04;20.40;;;11.00;;
41887;SDS011;63122;52.424;13.458;2024-02-28T13:29:01;18.63;;;9.77;;
41887;SDS011;63122;52.424;13.458;2024-02-28T13:30:53;17.40;;;10.50;;